Time;durP1;ratioP1;P1;durP2;ratioP2;P2;SDS_P1;SDS_P2;PMS_P1;PMS_P2;Temp;Humidity;BMP_temperature;BMP_pressure;BME280_temperature;BME280_humidity;BME280_pressure;Samples;Min_cycle;Max_cycle;Signal;HPM_P1;HPM_P2
2020/12/07 00:02:26;;;;;;;5.07;3.80;;;;;;;19.00;37.09;99674.78;5234570;28;20035;-26
2020/12/07 00:04:57;;;;;;;5.30;3.80;;;;;;;19.09;37.15;99680.66;5238582;28;20029;-25
2020/12/07 00:07:29;;;;;;;4.63;3.53;;;;;;;19.09;37.22;99676.19;5233035;28;20476;-26
2020/12/07 00:10:03;;;;;;;5.37;3.43;;;;;;;19.04;37.24;99675.19;5217243;28;20026;-26
2020/12/07 00:12:35;;;;;;;6.05;4.00;;;;;;;19.01;37.21;99662.34;5208428;28;20033;-26
2020/12/07 00:15:07;;;;;;;5.13;3.75;;;;;;;19.02;37.15;99658.66;5177539;28;20652;-26
2020/12/07 00:17:38;;;;;;;5.47;3.90;;;;;;;19.09;36.97;99659.41;5213947;28;20022;-26
2020/12/07 00:20:09;;;;;;;5.27;3.77;;;;;;;19.04;37.06;99660.06;5210077;28;20829;-26
2020/12/07 00:22:41;;;;;;;5.00;4.00;;;;;;;19.07;37.26;99651.69;5225167;28;20030;-26
2020/12/07 00:25:12;;;;;;;4.90;3.80;;;;;;;19.08;37.02;99647.19;5227790;28;20043;-26
2020/12/07 00:27:44;;;;;;;6.77;3.90;;;;;;;19.05;37.13;99635.13;5228549;28;20025;-25
2020/12/07 00:30:15;;;;;;;5.03;3.73;;;;;;;19.02;37.12;99637.44;5196181;28;20028;-26
2020/12/07 00:32:46;;;;;;;4.07;3.27;;;;;;;19.04;36.85;99638.81;5196579;28;20033;-26
2020/12/07 00:35:18;;;;;;;5.87;3.93;;;;;;;19.04;37.11;99638.03;5228925;28;20025;-26
2020/12/07 00:37:49;;;;;;;5.10;3.97;;;;;;;19.07;36.77;99646.38;5229595;28;20025;-26
2020/12/07 00:40:21;;;;;;;5.13;3.87;;;;;;;19.02;37.16;99638.25;5231301;28;20409;-27
2020/12/07 00:42:52;;;;;;;4.97;3.67;;;;;;;19.02;37.01;99642.75;5211308;28;20518;-26
2020/12/07 00:45:23;;;;;;;6.80;3.90;;;;;;;19.03;37.04;99644.38;5178530;28;20053;-26
2020/12/07 00:47:55;;;;;;;4.93;3.77;;;;;;;18.97;37.09;99638.06;5225790;28;20060;-26
2020/12/07 00:50:26;;;;;;;3.87;3.33;;;;;;;19.03;37.14;99639.88;5213823;28;20488;-26
2020/12/07 00:52:57;;;;;;;4.73;3.47;;;;;;;19.02;37.16;99638.25;5228143;28;20025;-26
2020/12/07 00:55:29;;;;;;;4.97;3.57;;;;;;;19.01;36.81;99636.59;5220132;28;20125;-26
2020/12/07 00:58:00;;;;;;;5.20;3.67;;;;;;;19.05;37.15;99640.44;5232256;28;20028;-26
2020/12/07 01:00:31;;;;;;;4.90;3.40;;;;;;;19.03;37.27;99639.88;5206181;28;20034;-26
2020/12/07 01:03:03;;;;;;;4.63;3.20;;;;;;;18.96;37.43;99636.44;5208478;28;20106;-26
2020/12/07 01:05:34;;;;;;;4.00;3.20;;;;;;;19.05;37.19;99647.59;5235245;28;20033;-27
2020/12/07 01:08:05;;;;;;;5.13;3.00;;;;;;;19.01;37.33;99649.88;5237041;28;20021;-27
2020/12/07 01:10:37;;;;;;;4.30;3.27;;;;;;;19.01;36.95;99655.19;5230064;28;20020;-27
2020/12/07 01:13:08;;;;;;;4.67;3.20;;;;;;;18.98;37.15;99649.47;5210154;28;20616;-27
2020/12/07 01:15:39;;;;;;;4.37;3.37;;;;;;;18.99;37.07;99643.97;5214419;28;20039;-27
2020/12/07 01:18:11;;;;;;;4.77;3.43;;;;;;;19.03;37.25;99645.19;5205082;28;20697;-27
2020/12/07 01:20:42;;;;;;;4.47;3.47;;;;;;;19.01;37.26;99655.19;5231031;28;20041;-26
2020/12/07 01:23:14;;;;;;;5.00;3.43;;;;;;;19.01;37.20;99643.75;5228379;28;20017;-26
2020/12/07 01:25:45;;;;;;;5.53;3.37;;;;;;;19.03;37.17;99644.38;5197597;28;20025;-26
2020/12/07 01:28:16;;;;;;;3.67;2.73;;;;;;;19.04;37.06;99645.97;5237960;28;20013;-27
2020/12/07 01:30:48;;;;;;;4.17;2.93;;;;;;;19.01;37.38;99633.94;5202673;28;20036;-27
2020/12/07 01:33:19;;;;;;;3.87;3.30;;;;;;;18.98;37.12;99620.28;5195406;28;20041;-27
2020/12/07 01:35:50;;;;;;;4.03;3.30;;;;;;;19.00;37.12;99623.56;5208985;28;20017;-26
2020/12/07 01:38:22;;;;;;;4.87;3.27;;;;;;;18.98;37.20;99615.81;5230184;28;20092;-27
2020/12/07 01:40:53;;;;;;;4.60;3.43;;;;;;;18.99;37.25;99612.13;5201123;28;20052;-27
2020/12/07 01:43:25;;;;;;;4.80;3.47;;;;;;;18.99;37.26;99606.00;5229890;28;20021;-27
2020/12/07 01:45:59;;;;;;;3.93;2.90;;;;;;;18.98;37.39;99607.84;5183427;28;20032;-26
2020/12/07 01:48:31;;;;;;;3.95;2.95;;;;;;;18.91;37.36;99605.25;5189800;28;20133;-27
2020/12/07 01:51:02;;;;;;;4.07;2.87;;;;;;;18.94;37.22;99603.97;5218938;28;20072;-27
2020/12/07 01:53:33;;;;;;;3.93;2.90;;;;;;;18.96;37.22;99586.00;5237915;28;20079;-27
2020/12/07 01:56:05;;;;;;;3.80;3.03;;;;;;;18.98;37.34;99591.09;5209438;28;20036;-27
2020/12/07 01:58:36;;;;;;;3.60;3.20;;;;;;;18.93;37.47;99600.50;5197637;28;20107;-27
2020/12/07 02:01:08;;;;;;;4.73;2.70;;;;;;;18.85;37.52;99592.00;5210134;28;20036;-27
2020/12/07 02:03:39;;;;;;;3.97;2.90;;;;;;;18.93;37.19;99589.09;5218722;28;20394;-27
2020/12/07 02:06:11;;;;;;;4.80;3.07;;;;;;;18.93;37.40;99592.56;5193561;28;20030;-27
2020/12/07 02:08:42;;;;;;;3.90;2.97;;;;;;;18.90;37.43;99590.34;5210303;28;20030;-26
2020/12/07 02:11:13;;;;;;;3.87;2.80;;;;;;;18.94;37.23;99583.59;5237851;28;20017;-27
2020/12/07 02:13:45;;;;;;;4.33;3.23;;;;;;;18.93;37.20;99589.91;5233260;28;20087;-26
2020/12/07 02:16:16;;;;;;;3.77;2.90;;;;;;;18.87;37.37;99582.00;5231641;28;20025;-27
2020/12/07 02:18:48;;;;;;;4.40;3.13;;;;;;;18.88;37.46;99576.47;5197713;28;20028;-32
2020/12/07 02:21:19;;;;;;;3.77;3.00;;;;;;;18.90;37.43;99594.81;5183768;28;20116;-26
2020/12/07 02:23:50;;;;;;;4.17;3.17;;;;;;;18.89;37.26;99601.16;5229669;28;20026;-26
2020/12/07 02:26:22;;;;;;;4.37;3.00;;;;;;;18.92;37.38;99598.91;5231036;28;20031;-26
2020/12/07 02:28:53;;;;;;;3.50;2.80;;;;;;;18.97;37.50;99584.97;5229480;28;20034;-26
2020/12/07 02:31:24;;;;;;;3.10;2.37;;;;;;;18.83;37.59;99580.81;5244062;28;20381;-27
2020/12/07 02:33:56;;;;;;;3.70;2.50;;;;;;;18.99;37.38;99576.81;5205745;28;21977;-26
2020/12/07 02:36:27;;;;;;;4.50;2.87;;;;;;;18.92;37.26;99571.53;5231745;28;20039;-26
2020/12/07 02:38:58;;;;;;;3.73;3.00;;;;;;;18.83;37.43;99565.69;5221650;28;20021;-27
2020/12/07 02:41:30;;;;;;;3.20;2.50;;;;;;;18.86;37.42;99559.13;5243531;28;20445;-26
2020/12/07 02:44:01;;;;;;;3.13;2.47;;;;;;;18.88;37.57;99562.38;5235178;28;20029;-26
2020/12/07 02:46:35;;;;;;;3.40;2.30;;;;;;;18.90;37.59;99565.63;5218389;28;20038;-26
2020/12/07 02:49:07;;;;;;;3.38;2.45;;;;;;;18.90;37.26;99571.78;5211577;28;20581;-26
2020/12/07 02:51:38;;;;;;;4.20;2.90;;;;;;;18.92;37.21;99568.91;5234884;28;20021;-26
2020/12/07 02:54:09;;;;;;;2.87;2.23;;;;;;;18.92;37.41;99559.09;5231879;28;20044;-26
2020/12/07 02:56:41;;;;;;;3.93;2.60;;;;;;;18.92;37.44;99551.13;5245311;28;20083;-26
2020/12/07 02:59:12;;;;;;;3.60;2.63;;;;;;;18.92;37.58;99545.00;5228886;28;20017;-26
2020/12/07 03:01:43;;;;;;;3.10;2.53;;;;;;;18.88;37.53;99538.50;5231817;28;20044;-26
2020/12/07 03:04:15;;;;;;;3.07;2.20;;;;;;;18.90;37.48;99531.13;5242481;28;20025;-26
2020/12/07 03:06:46;;;;;;;3.47;2.40;;;;;;;18.89;37.36;99540.94;5214656;28;20478;-28
2020/12/07 03:09:17;;;;;;;2.90;2.40;;;;;;;18.91;37.29;99540.72;5241491;28;20033;-27
2020/12/07 03:11:49;;;;;;;3.40;2.70;;;;;;;18.86;37.32;99541.34;5228264;28;20027;-27
2020/12/07 03:14:20;;;;;;;3.33;2.70;;;;;;;18.77;37.36;99518.78;5241817;28;20059;-26
2020/12/07 03:16:52;;;;;;;3.50;2.47;;;;;;;18.86;37.65;99525.44;5241428;28;20029;-26
2020/12/07 03:19:23;;;;;;;3.67;2.37;;;;;;;18.91;37.19;99530.94;5231313;28;20018;-26
2020/12/07 03:21:55;;;;;;;3.67;2.47;;;;;;;18.89;37.36;99530.31;5184481;28;20027;-26
2020/12/07 03:24:26;;;;;;;3.47;2.37;;;;;;;18.85;37.35;99520.34;5243760;28;20075;-27
2020/12/07 03:26:57;;;;;;;4.03;2.70;;;;;;;18.85;37.45;99520.34;5233936;28;20028;-27
2020/12/07 03:29:29;;;;;;;3.30;2.27;;;;;;;18.81;37.39;99522.63;5221200;28;20109;-27
2020/12/07 03:32:00;;;;;;;4.00;2.77;;;;;;;18.86;37.48;99508.72;5230673;28;20036;-27
2020/12/07 03:34:31;;;;;;;3.37;2.40;;;;;;;18.87;37.51;99507.69;5233908;28;20435;-27
2020/12/07 03:37:03;;;;;;;3.37;2.20;;;;;;;18.88;37.50;99511.97;5207097;28;20728;-27
2020/12/07 03:39:34;;;;;;;3.33;2.60;;;;;;;18.84;37.51;99514.25;5234398;28;20025;-27
2020/12/07 03:42:05;;;;;;;2.93;2.17;;;;;;;18.86;37.40;99514.81;5219179;28;20013;-27
2020/12/07 03:44:37;;;;;;;3.20;2.10;;;;;;;18.89;37.39;99518.91;5241144;28;20029;-27
2020/12/07 03:47:08;;;;;;;3.23;2.20;;;;;;;18.84;37.41;99516.91;5241545;28;20014;-27
2020/12/07 03:49:39;;;;;;;2.60;2.00;;;;;;;18.82;37.33;99523.44;5236867;28;20554;-27
2020/12/07 03:52:11;;;;;;;2.97;2.10;;;;;;;18.90;37.61;99531.13;5213340;28;20027;-27
2020/12/07 03:54:42;;;;;;;2.83;2.17;;;;;;;18.82;37.41;99521.59;5242321;28;20112;-27
2020/12/07 03:57:13;;;;;;;2.80;2.33;;;;;;;18.83;37.42;99515.28;5232536;28;20108;-26
2020/12/07 03:59:45;;;;;;;3.30;2.53;;;;;;;18.85;37.55;99526.47;5232729;28;20033;-27
2020/12/07 04:02:16;;;;;;;3.30;2.40;;;;;;;18.82;37.41;99528.75;5235032;28;20016;-27
2020/12/07 04:04:55;;;;;;;3.17;2.30;;;;;;;18.82;37.58;99529.56;5236891;28;20033;-28
2020/12/07 04:07:26;;;;;;;3.10;2.20;;;;;;;18.84;37.39;99539.97;5218360;28;20059;-27
2020/12/07 04:09:58;;;;;;;2.90;2.10;;;;;;;18.85;37.52;99533.63;5229936;28;20104;-27
2020/12/07 04:12:29;;;;;;;3.50;2.10;;;;;;;18.85;37.39;99530.97;5243670;28;20103;-27
2020/12/07 04:15:01;;;;;;;2.93;2.10;;;;;;;18.85;37.57;99533.63;5238237;28;20725;-27
2020/12/07 04:17:32;;;;;;;2.93;2.20;;;;;;;18.79;37.60;99542.44;5238630;28;20569;-27
2020/12/07 04:20:03;;;;;;;2.90;2.00;;;;;;;18.75;37.36;99550.00;5231027;28;20033;-27
2020/12/07 04:22:35;;;;;;;2.70;2.03;;;;;;;18.83;37.56;99549.78;5241799;28;20334;-27
2020/12/07 04:25:06;;;;;;;2.70;1.77;;;;;;;18.82;37.44;99552.63;5209870;28;20674;-27
2020/12/07 04:27:37;;;;;;;2.80;2.00;;;;;;;18.82;37.72;99547.31;5232051;28;20029;-27
2020/12/07 04:30:09;;;;;;;3.27;2.30;;;;;;;18.84;37.62;99553.25;5230108;28;20027;-27
2020/12/07 04:32:40;;;;;;;2.83;2.23;;;;;;;18.82;37.65;99539.34;5232900;28;20041;-27
2020/12/07 04:35:11;;;;;;;3.10;2.33;;;;;;;18.87;37.46;99539.53;5248874;28;20074;-27
2020/12/07 04:37:43;;;;;;;3.90;2.20;;;;;;;18.86;36.96;99535.25;5236598;28;20378;-27
2020/12/07 04:40:14;;;;;;;3.03;2.40;;;;;;;18.80;37.46;99525.50;5208824;28;20591;-27
2020/12/07 04:42:45;;;;;;;2.60;2.10;;;;;;;18.86;37.50;99524.63;5237870;28;20033;-27
2020/12/07 04:45:17;;;;;;;2.50;2.00;;;;;;;18.78;37.06;99519.59;5193138;28;20764;-27
2020/12/07 04:47:50;;;;;;;2.90;2.00;;;;;;;18.80;37.37;99523.66;5212913;28;20047;-28
2020/12/07 04:50:21;;;;;;;3.53;2.25;;;;;;;18.81;37.66;99514.66;5231547;28;20104;-27
2020/12/07 04:52:52;;;;;;;3.00;2.40;;;;;;;18.81;37.57;99506.72;5212361;28;20044;-27
2020/12/07 04:55:24;;;;;;;2.87;2.17;;;;;;;18.72;37.74;99502.72;5212692;28;20025;-27
2020/12/07 04:57:56;;;;;;;2.55;2.00;;;;;;;18.74;37.64;99497.19;5233781;28;20047;-28
2020/12/07 05:00:27;;;;;;;2.87;1.80;;;;;;;18.85;37.25;99493.81;5231302;28;20172;-27
2020/12/07 05:02:59;;;;;;;2.83;1.93;;;;;;;18.84;37.56;99497.50;5230352;28;20025;-27
2020/12/07 05:05:30;;;;;;;2.60;2.10;;;;;;;18.84;37.48;99487.72;5244370;28;20562;-27
2020/12/07 05:08:02;;;;;;;2.60;2.00;;;;;;;18.84;37.61;99478.94;5239026;28;20437;-28
2020/12/07 05:10:39;;;;;;;2.87;1.90;;;;;;;18.85;37.47;99483.22;5207590;28;20022;-27
2020/12/07 05:13:20;;;;;;;2.55;1.90;;;;;;;18.77;37.59;99483.47;5239240;23;20855;-25
2020/12/07 05:15:51;;;;;;;2.72;2.00;;;;;;;18.79;37.67;99478.75;5188045;28;20026;-26
2020/12/07 05:18:22;;;;;;;2.33;1.80;;;;;;;18.79;37.31;99471.63;5224537;28;20055;-26
2020/12/07 05:20:54;;;;;;;2.80;1.80;;;;;;;18.83;37.46;99472.81;5191101;28;20616;-26
2020/12/07 05:23:25;;;;;;;3.40;2.40;;;;;;;18.78;37.41;99467.34;5224143;28;20141;-25
2020/12/07 05:25:57;;;;;;;2.60;1.87;;;;;;;18.73;37.47;99461.06;5221389;28;20040;-26
2020/12/07 05:28:34;;;;;;;2.00;1.50;;;;;;;18.79;37.38;99466.31;5215430;28;20114;-26
2020/12/07 05:31:05;;;;;;;2.55;2.08;;;;;;;18.74;37.71;99465.34;5223714;28;20140;-26
2020/12/07 05:33:37;;;;;;;2.50;1.90;;;;;;;18.74;37.33;99460.03;5251470;28;20031;-25
2020/12/07 05:36:09;;;;;;;2.23;1.77;;;;;;;18.74;37.63;99463.50;5223501;28;20407;-26
2020/12/07 05:38:42;;;;;;;2.10;1.60;;;;;;;18.80;37.49;99464.47;5240268;28;20083;-28
2020/12/07 05:41:13;;;;;;;2.50;1.80;;;;;;;18.81;37.44;99461.59;5214092;28;20021;-26
2020/12/07 05:43:44;;;;;;;3.67;2.00;;;;;;;18.78;37.36;99466.53;5214174;28;20444;-25
2020/12/07 05:46:16;;;;;;;3.13;2.27;;;;;;;18.76;37.51;99474.72;5216551;28;20477;-26
2020/12/07 05:48:47;;;;;;;2.63;1.80;;;;;;;18.77;37.56;99478.19;5217360;28;20044;-25
2020/12/07 05:51:24;;;;;;;2.27;1.70;;;;;;;18.82;37.49;99478.31;5202732;28;20029;-26
2020/12/07 05:53:56;;;;;;;2.33;1.80;;;;;;;18.71;37.67;99485.16;5244126;28;20025;-26
2020/12/07 05:56:29;;;;;;;2.47;1.67;;;;;;;18.75;37.58;99499.59;5197228;28;20672;-27
2020/12/07 05:59:07;;;;;;;;;;;;;;;19.02;37.18;99500.22;5213448;28;20051;-28
2020/12/07 06:01:38;;;;;;;2.88;2.00;;;;;;;18.81;37.31;99512.00;5227753;28;19913;-27
2020/12/07 06:04:09;;;;;;;2.40;1.80;;;;;;;18.75;37.80;99517.38;5208073;28;20021;-27
2020/12/07 06:06:41;;;;;;;2.90;1.90;;;;;;;18.78;37.63;99514.28;5203597;28;20036;-26
2020/12/07 06:09:23;;;;;;;2.63;1.52;;;;;;;18.78;37.73;99523.06;5246136;28;20083;-26
2020/12/07 06:12:00;;;;;;;2.55;1.90;;;;;;;18.75;37.42;99526.13;5202574;28;20344;-26
2020/12/07 06:14:32;;;;;;;2.47;1.70;;;;;;;18.76;37.59;99521.66;5233944;28;20033;-32
2020/12/07 06:17:03;;;;;;;2.60;1.90;;;;;;;18.73;37.86;99520.25;5224837;28;20086;-26
2020/12/07 06:19:34;;;;;;;2.83;1.73;;;;;;;18.73;37.47;99524.75;5204727;28;20070;-25
2020/12/07 06:22:06;;;;;;;2.90;1.90;;;;;;;18.75;37.52;99517.38;5188587;28;20094;-26
2020/12/07 06:24:41;;;;;;;2.40;1.87;;;;;;;18.73;37.49;99517.59;5253027;28;20115;-25
2020/12/07 06:27:13;;;;;;;2.83;1.98;;;;;;;18.74;37.65;99513.09;5239316;28;20033;-26
2020/12/07 06:30:05;;;;;;;2.40;1.58;;;;;;;18.81;37.47;99511.22;5226284;28;20087;-25
2020/12/07 06:32:43;;;;;;;2.05;1.30;;;;;;;18.74;37.57;99513.09;5248857;28;20128;-25
2020/12/07 06:35:14;;;;;;;2.35;1.70;;;;;;;18.75;37.57;99509.41;5230699;28;20029;-26
2020/12/07 06:37:49;;;;;;;2.30;1.53;;;;;;;18.74;37.45;99510.44;5228745;28;20027;-25
2020/12/07 06:40:24;;;;;;;2.53;1.80;;;;;;;18.65;37.81;99512.53;5251081;28;20064;-26
2020/12/07 06:42:55;;;;;;;2.55;1.73;;;;;;;18.64;37.81;99514.38;5223174;28;20025;-26
2020/12/07 06:45:31;;;;;;;2.50;1.77;;;;;;;18.67;37.66;99516.56;5230610;28;20931;-26
2020/12/07 06:48:10;;;;;;;2.85;1.98;;;;;;;18.67;37.61;99513.91;5227744;28;20021;-26
2020/12/07 06:50:45;;;;;;;2.08;1.38;;;;;;;18.71;37.52;99515.16;5235001;28;20116;-25
2020/12/07 06:56:00;;;;;;;2.63;1.77;;;;;;;18.64;37.61;99511.72;5233760;28;20056;-26
2020/12/07 06:58:38;;;;;;;2.83;1.80;;;;;;;18.73;37.46;99506.97;5251669;28;20045;-25
2020/12/07 07:01:14;;;;;;;2.45;1.80;;;;;;;18.68;37.43;99518.22;5216496;28;20036;-26
2020/12/07 07:03:49;;;;;;;2.45;1.73;;;;;;;18.67;37.87;99513.91;5227783;28;20036;-26
2020/12/07 07:06:22;;;;;;;2.38;1.67;;;;;;;18.66;37.61;99514.94;5238066;28;20397;-26
2020/12/07 07:08:54;;;;;;;2.53;1.70;;;;;;;18.74;37.62;99519.22;5234839;28;20243;-26
2020/12/07 07:11:25;;;;;;;2.20;1.63;;;;;;;18.64;37.81;99513.56;5237001;28;20040;-26
2020/12/07 07:13:56;;;;;;;2.90;1.83;;;;;;;18.73;37.64;99516.78;5217564;28;20845;-26
2020/12/07 07:16:28;;;;;;;2.80;2.03;;;;;;;18.75;37.76;99514.72;5219580;28;20063;-25
2020/12/07 07:18:59;;;;;;;2.90;2.13;;;;;;;18.71;37.92;99520.47;5228956;28;20021;-26
2020/12/07 07:21:30;;;;;;;2.23;1.63;;;;;;;18.75;37.83;99517.38;5230935;28;20502;-25
2020/12/07 07:24:02;;;;;;;2.20;1.73;;;;;;;18.74;37.84;99516.56;5216049;28;20013;-26
2020/12/07 07:26:36;;;;;;;1.97;1.53;;;;;;;18.73;37.69;99512.28;5227484;28;20055;-25
2020/12/07 07:29:07;;;;;;;2.67;1.77;;;;;;;18.78;37.63;99522.25;5245509;28;20021;-26
2020/12/07 07:31:39;;;;;;;2.57;1.80;;;;;;;18.73;37.71;99528.22;5209114;28;20490;-25
2020/12/07 07:34:10;;;;;;;2.50;1.80;;;;;;;18.79;37.71;99519.41;5247385;28;20051;-26
2020/12/07 07:36:41;;;;;;;2.00;1.60;;;;;;;18.81;37.75;99533.25;5220753;28;20061;-25
2020/12/07 07:39:16;;;;;;;2.97;1.93;;;;;;;18.79;37.83;99527.34;5202803;28;20070;-25
2020/12/07 07:41:47;;;;;;;2.10;1.55;;;;;;;18.75;37.60;99535.94;5213245;28;20075;-25
2020/12/07 07:44:19;;;;;;;2.50;1.90;;;;;;;18.76;37.69;99534.94;5218508;28;20037;-26
2020/12/07 07:46:50;;;;;;;2.80;1.77;;;;;;;18.76;37.89;99538.41;5205232;28;20328;-25
2020/12/07 07:49:38;;;;;;;2.17;1.53;;;;;;;18.85;37.78;99544.25;5220616;28;20150;-26
2020/12/07 07:52:37;;;;;;;2.78;1.90;;;;;;;18.80;37.46;99546.75;5228884;28;20029;-26
2020/12/07 08:00:50;;;;;;;3.13;1.90;;;;;;;18.83;37.55;99555.09;5199202;28;20833;-26
2020/12/07 08:17:20;;;;;;;2.53;1.92;;;;;;;18.83;37.71;99580.81;5225741;28;20497;-26
2020/12/07 08:20:05;;;;;;;3.37;2.43;;;;;;;18.89;37.53;99580.75;5218671;28;20025;-26
2020/12/07 08:22:36;;;;;;;3.13;2.10;;;;;;;18.78;37.62;99575.31;5235334;28;20470;-25
2020/12/07 08:25:08;;;;;;;3.33;2.23;;;;;;;18.83;37.79;99583.47;5242151;28;20028;-26
2020/12/07 08:27:39;;;;;;;3.80;2.77;;;;;;;18.83;37.53;99576.31;5245257;28;20030;-26
2020/12/07 08:30:11;;;;;;;4.00;2.80;;;;;;;18.84;37.31;99580.59;5233643;28;20027;-26
2020/12/07 08:32:42;;;;;;;4.13;3.10;;;;;;;18.84;37.43;99579.78;5228596;28;20017;-25
2020/12/07 08:35:13;;;;;;;4.63;3.20;;;;;;;18.80;37.57;99586.53;5247822;28;20021;-26
2020/12/07 08:37:45;;;;;;;5.07;3.27;;;;;;;18.83;37.27;99586.13;5230378;28;20028;-25
2020/12/07 08:40:18;;;;;;;3.87;3.20;;;;;;;18.84;37.34;99585.09;5219327;28;20031;-26
2020/12/07 08:42:49;;;;;;;;;;;;;;;19.01;37.13;99583.50;5246255;28;20033;-25
2020/12/07 08:45:21;;;;;;;4.23;3.40;;;;;;;18.82;37.46;99595.88;5248089;28;19919;-26
2020/12/07 08:47:52;;;;;;;4.72;3.58;;;;;;;18.82;37.46;99603.84;5208770;28;20858;-26
2020/12/07 08:50:24;;;;;;;5.03;4.10;;;;;;;18.82;37.43;99606.50;5249044;28;20032;-26
2020/12/07 08:52:55;;;;;;;5.43;4.10;;;;;;;18.86;37.41;99599.75;5215844;28;20025;-26
2020/12/07 08:55:26;;;;;;;5.60;4.23;;;;;;;18.80;37.50;99597.97;5237271;28;20035;-26
2020/12/07 08:57:58;;;;;;;5.33;4.10;;;;;;;18.74;37.60;99598.81;5242830;28;20021;-26
2020/12/07 09:00:29;;;;;;;4.63;3.50;;;;;;;18.81;37.51;99604.09;5243773;28;20055;-26
2020/12/07 09:03:01;;;;;;;5.40;4.30;;;;;;;18.81;37.43;99598.78;5206729;28;20027;-26
2020/12/07 09:05:32;;;;;;;6.47;4.77;;;;;;;18.86;37.44;99606.91;5198787;28;20426;-27
2020/12/07 09:08:05;;;;;;;6.30;4.87;;;;;;;18.84;37.29;99606.31;5230779;28;20032;-27
2020/12/07 09:10:36;;;;;;;;;;;;;;;19.09;36.95;99615.13;5252504;28;20061;-27
2020/12/07 09:13:07;;;;;;;7.37;5.20;;;;;;;18.81;37.50;99615.50;5246975;28;19943;-27
2020/12/07 09:15:39;;;;;;;6.43;5.30;;;;;;;18.78;37.34;99602.66;5251362;28;20284;-27
2020/12/07 09:18:10;;;;;;;7.30;5.67;;;;;;;18.85;37.08;99622.00;5217461;28;20117;-27
2020/12/07 09:20:41;;;;;;;6.37;5.23;;;;;;;18.81;37.07;99625.31;5210221;28;20052;-28
2020/12/07 09:23:13;;;;;;;8.07;6.10;;;;;;;18.84;37.34;99631.00;5239442;28;20021;-27
2020/12/07 09:25:44;;;;;;;7.17;5.80;;;;;;;18.83;37.15;99628.56;5249896;28;20090;-28
2020/12/07 09:28:15;;;;;;;7.00;5.67;;;;;;;18.78;37.34;99637.16;5251976;28;20043;-28
2020/12/07 09:30:47;;;;;;;7.30;5.70;;;;;;;18.71;37.34;99626.59;5250044;28;20017;-27
2020/12/07 09:33:18;;;;;;;7.43;6.13;;;;;;;18.83;37.23;99641.84;5222768;28;20031;-27
2020/12/07 09:35:49;;;;;;;6.53;5.67;;;;;;;18.86;37.11;99638.72;5216429;28;20037;-28
2020/12/07 09:38:21;;;;;;;8.37;6.30;;;;;;;18.89;37.24;99643.63;5243557;28;20090;-26
2020/12/07 09:40:53;;;;;;;7.97;5.93;;;;;;;18.84;37.41;99640.81;5244752;28;20016;-26
2020/12/07 09:43:24;;;;;;;8.73;6.00;;;;;;;18.87;37.21;99640.38;5238991;28;20029;-26
2020/12/07 09:45:56;;;;;;;7.23;5.73;;;;;;;18.85;37.08;99629.97;5230717;28;20755;-26
2020/12/07 09:48:27;;;;;;;7.77;6.00;;;;;;;18.90;37.17;99635.47;5225589;28;20039;-26
2020/12/07 09:50:58;;;;;;;8.30;6.37;;;;;;;18.89;37.30;99633.00;5225693;28;20025;-26
2020/12/07 09:53:30;;;;;;;8.73;6.60;;;;;;;18.89;37.07;99633.00;5250404;28;20078;-26
2020/12/07 09:56:01;;;;;;;7.13;5.90;;;;;;;18.89;37.07;99635.66;5232908;28;20605;-26
2020/12/07 09:58:32;;;;;;;8.17;6.40;;;;;;;18.89;36.99;99638.31;5243688;28;20034;-25
2020/12/07 10:01:04;;;;;;;7.30;5.83;;;;;;;18.89;37.16;99633.00;5234134;28;20043;-26
2020/12/07 10:03:35;;;;;;;7.13;5.70;;;;;;;18.90;36.97;99635.47;5242471;28;20025;-25
2020/12/07 10:06:06;;;;;;;7.17;5.80;;;;;;;18.90;37.19;99640.78;5214375;28;20045;-27
2020/12/07 10:08:38;;;;;;;6.60;5.80;;;;;;;18.94;37.16;99633.16;5238196;28;20074;-27
2020/12/07 10:11:13;;;;;;;7.60;6.10;;;;;;;18.95;37.37;99637.47;5220863;28;20071;-28
2020/12/07 10:13:44;;;;;;;8.02;5.88;;;;;;;18.89;37.11;99635.66;5241512;28;20025;-28
2020/12/07 10:16:15;;;;;;;8.80;6.47;;;;;;;18.92;37.21;99635.25;5224953;28;20031;-26
2020/12/07 10:18:47;;;;;;;7.27;5.93;;;;;;;18.97;37.17;99640.72;5253458;28;20033;-25
2020/12/07 10:21:24;;;;;;;8.43;6.30;;;;;;;18.97;37.09;99646.00;5226613;28;20032;-25
2020/12/07 10:23:55;;;;;;;7.53;5.97;;;;;;;18.92;37.17;99638.69;5229418;28;20714;-26
2020/12/07 10:26:26;;;;;;;6.93;5.60;;;;;;;18.93;37.24;99644.81;5245432;28;20044;-25
2020/12/07 10:28:58;;;;;;;7.77;5.83;;;;;;;18.94;37.00;99641.97;5248644;28;20016;-27
2020/12/07 10:31:29;;;;;;;7.80;6.30;;;;;;;18.98;36.96;99639.69;5232824;28;20028;-25
2020/12/07 10:34:00;;;;;;;7.13;5.47;;;;;;;18.96;37.20;99645.22;5240814;28;20032;-26
2020/12/07 10:36:32;;;;;;;7.10;5.57;;;;;;;18.98;37.28;99639.69;5215737;28;20025;-25
2020/12/07 10:39:06;;;;;;;7.00;5.77;;;;;;;18.95;37.21;99642.78;5228472;28;20016;-27
2020/12/07 10:41:37;;;;;;;6.63;5.60;;;;;;;18.96;37.16;99642.56;5234789;28;20051;-27
2020/12/07 10:44:08;;;;;;;8.50;5.97;;;;;;;19.03;37.10;99649.66;5235951;28;20025;-27
2020/12/07 10:46:40;;;;;;;7.53;5.53;;;;;;;19.00;36.98;99650.09;5239655;28;20107;-27
2020/12/07 10:49:11;;;;;;;7.37;5.83;;;;;;;19.03;37.08;99654.97;5254650;28;20423;-27
2020/12/07 10:51:45;;;;;;;6.87;5.53;;;;;;;18.98;37.04;99646.81;5227040;28;20025;-28
2020/12/07 10:54:16;;;;;;;7.00;5.70;;;;;;;18.96;37.27;99650.50;5221484;28;20338;-28
2020/12/07 10:56:47;;;;;;;6.93;5.43;;;;;;;18.96;37.11;99649.72;5233622;28;20363;-26
2020/12/07 10:59:19;;;;;;;7.10;5.90;;;;;;;19.00;37.25;99658.06;5197427;28;20038;-27
2020/12/07 11:01:54;;;;;;;6.80;5.10;;;;;;;19.02;37.24;99651.53;5229311;28;20172;-26
2020/12/07 11:04:26;;;;;;;7.32;5.80;;;;;;;18.98;37.09;99665.41;5228634;28;20116;-26
2020/12/07 11:06:59;;;;;;;7.33;5.53;;;;;;;19.04;37.06;99664.56;5201420;28;25154;-26
2020/12/07 11:09:30;;;;;;;6.72;5.25;;;;;;;19.00;37.08;99661.53;5212543;28;20040;-26
2020/12/07 11:12:04;;;;;;;6.87;5.70;;;;;;;19.05;37.10;99664.34;5227938;28;20034;-26
2020/12/07 11:14:35;;;;;;;6.50;5.47;;;;;;;18.91;37.30;99652.19;5262408;23;20116;-71
2020/12/07 11:17:08;;;;;;;7.30;5.37;;;;;;;19.05;37.20;99660.88;5267143;28;20029;-70
2020/12/07 11:19:43;;;;;;;7.65;5.88;;;;;;;19.01;37.08;99659.69;5257792;28;20059;-71
2020/12/07 11:22:15;;;;;;;7.45;6.15;;;;;;;18.98;37.19;99660.94;5252297;28;20394;-71
2020/12/07 11:24:46;;;;;;;6.97;5.73;;;;;;;19.01;37.13;99665.78;5217614;28;20028;-70
2020/12/07 11:27:18;;;;;;;7.03;5.37;;;;;;;19.03;37.06;99650.47;5263741;28;20008;-71
2020/12/07 11:29:49;;;;;;;6.23;5.60;;;;;;;19.04;37.36;99657.41;5237218;28;20036;-72
2020/12/07 11:32:20;;;;;;;6.80;5.43;;;;;;;18.98;37.29;99647.66;5277080;28;20389;-71
2020/12/07 11:34:52;;;;;;;6.23;5.03;;;;;;;19.07;37.02;99649.03;5272650;28;20021;-71
2020/12/07 11:37:23;;;;;;;6.67;5.30;;;;;;;19.02;37.38;99656.03;5258155;28;20025;-71
2020/12/07 11:40:10;;;;;;;6.03;5.00;;;;;;;19.05;37.12;99648.41;5233168;28;20055;-71
2020/12/07 11:42:54;;;;;;;6.13;4.97;;;;;;;18.98;37.27;99652.13;5232181;28;20044;-72
2020/12/07 11:45:26;;;;;;;6.03;4.65;;;;;;;19.00;37.35;99644.78;5244981;28;20090;-71
2020/12/07 11:47:57;;;;;;;5.53;4.63;;;;;;;19.03;37.20;99644.38;5245447;28;20021;-71
2020/12/07 11:50:29;;;;;;;6.27;5.27;;;;;;;19.02;37.30;99654.16;5270195;28;20082;-70
2020/12/07 11:53:00;;;;;;;6.67;5.00;;;;;;;19.05;37.28;99648.41;5245632;28;20615;-72
2020/12/07 11:55:32;;;;;;;5.87;5.23;;;;;;;19.04;37.27;99648.63;5255675;28;20474;-72
2020/12/07 11:58:03;;;;;;;5.87;4.63;;;;;;;19.05;37.24;99648.41;5234438;28;20196;-71
2020/12/07 12:00:36;;;;;;;6.63;5.13;;;;;;;19.05;37.18;99648.41;5263803;28;20162;-73
2020/12/07 12:03:08;;;;;;;5.53;4.35;;;;;;;18.96;37.09;99642.56;5252480;28;20272;-72
2020/12/07 12:05:39;;;;;;;6.30;4.97;;;;;;;19.05;37.17;99648.41;5265917;28;20024;-71
2020/12/07 12:08:10;;;;;;;6.40;4.90;;;;;;;19.07;37.00;99654.34;5266027;28;20515;-70
2020/12/07 12:10:47;;;;;;;6.37;5.03;;;;;;;19.11;37.01;99657.38;5243353;28;20043;-73
2020/12/07 12:13:18;;;;;;;5.97;4.93;;;;;;;19.03;37.42;99657.63;5276048;28;20034;-71
2020/12/07 12:15:52;;;;;;;6.10;5.00;;;;;;;19.04;37.22;99654.75;5244483;28;20028;-73
2020/12/07 12:18:24;;;;;;;6.85;5.10;;;;;;;18.97;37.20;99653.97;5247239;28;20028;-71
2020/12/07 12:20:55;;;;;;;6.37;4.83;;;;;;;19.08;37.22;99658.59;5265834;28;20027;-71